CAK weather

Akron Canton Regional Airport
Akron, Ohio, United States

Public forecast

Using degrees Fahrenheit for public forecast. Weather courtesy of forecast.io.

Current aviation weather report (METAR) for Akron Canton Regional Airport

Retrieved 2019/11/21 16:51 UTC (58 minutes ago):

KCAK 211651Z 19016KT 7SM FEW080 BKN140 OVC250 07/03 A3007 RMK AO2 SLP190 T00720028

Aviation forecast (TAF) for Akron Canton Regional Airport

Retrieved 2019/11/21 12:42 UTC (5 hours ago):

TAF KCAK 211140Z 2112/2212 VRB03KT P6SM BKN250 TEMPO 2112/2114 5SM BR FM211600 19013KT P6SM OVC070 FM212000 20013G23KT P6SM VCSH OVC050 FM220000 21015G25KT 5SM -SHRA OVC035 FM220300 22015G25KT 4SM -SHRA BR OVC015 FM220900 29013KT P6SM OVC010